createdAt,value
2024-03-12T00:02:49.624Z,34.90
2024-03-12T00:15:20.011Z,33.50
2024-03-12T00:21:46.818Z,32.20
2024-03-12T00:28:11.401Z,28.80
2024-03-12T00:34:36.958Z,32.90
2024-03-12T00:40:46.523Z,39.80
2024-03-12T00:46:14.913Z,53.80
2024-03-12T00:51:31.541Z,39.50
2024-03-12T00:56:41.934Z,46.70
2024-03-12T01:02:59.695Z,42.70
2024-03-12T01:08:48.106Z,35.80
2024-03-12T01:14:39.266Z,34.80
2024-03-12T01:20:46.065Z,33.40
2024-03-12T01:26:25.993Z,36.20
2024-03-12T01:32:52.116Z,35.00
2024-03-12T01:39:05.222Z,34.60
2024-03-12T01:44:59.231Z,33.70
2024-03-12T01:51:05.574Z,33.20
2024-03-12T01:57:30.086Z,33.70
2024-03-12T02:03:55.260Z,32.00
2024-03-12T02:10:21.066Z,34.30
2024-03-12T02:15:59.649Z,31.20
2024-03-12T02:22:14.008Z,36.40
2024-03-12T02:27:52.745Z,36.60
2024-03-12T02:34:15.172Z,35.70
2024-03-12T02:40:17.258Z,34.00
2024-03-12T02:46:22.410Z,38.50
2024-03-12T02:52:39.590Z,39.90
2024-03-12T02:58:18.788Z,39.70
2024-03-12T03:04:16.192Z,37.00
2024-03-12T03:10:33.879Z,37.00
2024-03-12T03:16:39.735Z,39.50
2024-03-12T03:22:49.741Z,39.20
2024-03-12T03:28:57.935Z,41.40
2024-03-12T03:35:23.692Z,40.50
2024-03-12T03:41:48.713Z,40.20
2024-03-12T03:47:39.095Z,44.00
2024-03-12T03:53:45.044Z,42.00
2024-03-12T03:59:32.523Z,39.40
2024-03-12T04:05:16.146Z,40.80
2024-03-12T04:10:49.774Z,43.50
2024-03-12T04:16:58.809Z,41.20
2024-03-12T04:22:23.189Z,40.70
2024-03-12T04:27:38.326Z,41.90
2024-03-12T04:33:54.175Z,45.00
2024-03-12T04:39:44.168Z,41.10
2024-03-12T04:46:09.335Z,38.20
2024-03-12T04:52:35.235Z,44.40
2024-03-12T04:58:41.466Z,44.80
2024-03-12T05:04:46.842Z,48.60
2024-03-12T05:10:52.421Z,47.10
2024-03-12T05:17:18.733Z,51.40
2024-03-12T05:23:16.097Z,47.70
2024-03-12T05:29:34.504Z,49.40
2024-03-12T05:35:00.438Z,53.00
2024-03-12T05:40:54.104Z,53.40
2024-03-12T05:47:11.440Z,58.60
2024-03-12T05:53:06.412Z,59.70
2024-03-12T05:59:31.629Z,53.40
2024-03-12T06:05:29.904Z,56.80
2024-03-12T06:11:32.833Z,58.30
2024-03-12T06:17:58.642Z,56.00
2024-03-12T06:23:27.276Z,60.60
2024-03-12T06:29:53.044Z,61.50
2024-03-12T06:35:38.722Z,61.40
2024-03-12T06:40:49.807Z,61.40
2024-03-12T06:45:57.730Z,58.20
2024-03-12T06:52:11.496Z,57.40
2024-03-12T06:58:01.067Z,54.00
2024-03-12T07:03:30.596Z,48.10
2024-03-12T07:09:17.317Z,49.70
2024-03-12T07:15:04.616Z,52.60
2024-03-12T07:21:22.164Z,50.30
2024-03-12T07:27:32.998Z,52.80
2024-03-12T07:33:36.451Z,49.20
2024-03-12T07:40:02.914Z,53.30
2024-03-12T07:46:28.493Z,54.20
2024-03-12T07:52:17.971Z,52.20
2024-03-12T07:58:04.379Z,50.80
2024-03-12T08:04:13.166Z,49.50
2024-03-12T08:09:43.742Z,49.80
2024-03-12T08:15:08.144Z,48.70
2024-03-12T08:20:22.800Z,48.00
2024-03-12T08:26:36.820Z,47.80
2024-03-12T08:33:02.559Z,47.00
2024-03-12T08:39:28.767Z,45.50
2024-03-12T08:45:00.188Z,43.00
2024-03-12T08:50:17.281Z,40.50
2024-03-12T08:55:30.999Z,44.30
2024-03-12T09:00:48.564Z,35.20
2024-03-12T09:06:19.463Z,44.00
2024-03-12T09:12:08.534Z,46.00
2024-03-12T09:17:57.462Z,45.40
2024-03-12T09:24:02.891Z,45.70
2024-03-12T09:29:19.316Z,41.80
2024-03-12T09:34:26.927Z,41.40
2024-03-12T09:39:44.665Z,43.40
2024-03-12T09:44:59.217Z,45.90
2024-03-12T09:50:59.106Z,41.50
2024-03-12T09:56:39.953Z,41.10
2024-03-12T10:02:37.338Z,39.30
2024-03-12T10:09:08.757Z,38.00
2024-03-12T10:15:35.131Z,42.60
2024-03-12T10:21:59.700Z,38.10
2024-03-12T10:27:44.313Z,43.30
2024-03-12T10:34:11.104Z,45.70
2024-03-12T10:40:37.052Z,45.40
2024-03-12T10:45:57.671Z,45.30
2024-03-12T10:51:14.883Z,44.10
2024-03-12T10:56:34.086Z,42.50
2024-03-12T11:01:54.377Z,45.50
2024-03-12T11:07:04.626Z,48.20
2024-03-12T11:12:26.316Z,42.80
2024-03-12T11:18:13.970Z,42.20
2024-03-12T11:24:20.887Z,35.90
2024-03-12T11:30:52.981Z,41.80
2024-03-12T11:36:51.136Z,43.90
2024-03-12T11:42:44.367Z,41.50
2024-03-12T11:48:23.461Z,37.20
2024-03-12T11:54:32.526Z,39.90
2024-03-12T12:00:57.677Z,40.60
2024-03-12T12:07:18.242Z,37.70
2024-03-12T12:13:33.664Z,30.10
2024-03-12T12:19:45.475Z,38.90
2024-03-12T12:26:11.609Z,41.60
2024-03-12T12:31:59.652Z,41.60
2024-03-12T12:37:22.111Z,42.30
2024-03-12T12:42:51.434Z,43.50
2024-03-12T12:48:25.922Z,40.50
2024-03-12T12:54:43.881Z,42.40
2024-03-12T13:00:51.509Z,41.40
2024-03-12T13:07:05.773Z,39.20
2024-03-12T13:13:32.277Z,41.20
2024-03-12T13:19:03.143Z,41.70
2024-03-12T13:24:33.811Z,43.50
2024-03-12T13:30:30.492Z,36.40
2024-03-12T13:35:45.090Z,40.40
2024-03-12T13:41:10.725Z,40.70
2024-03-12T13:46:31.008Z,41.70
2024-03-12T13:52:56.764Z,39.60
2024-03-12T13:58:27.735Z,37.30
2024-03-12T14:03:56.636Z,37.80
2024-03-12T14:09:39.331Z,36.90
2024-03-12T14:15:56.772Z,40.00
2024-03-12T14:22:02.208Z,39.50
2024-03-12T14:27:37.907Z,38.00
2024-03-12T14:33:45.888Z,37.60
2024-03-12T14:39:17.676Z,37.80
2024-03-12T14:44:48.735Z,37.60
2024-03-12T14:50:21.045Z,37.90
2024-03-12T14:55:48.209Z,38.60
2024-03-12T15:01:30.656Z,39.70
2024-03-12T15:07:04.887Z,36.50
2024-03-12T15:12:12.434Z,40.30
2024-03-12T15:17:42.078Z,39.50
2024-03-12T15:23:07.255Z,38.70
2024-03-12T15:28:34.340Z,39.00
2024-03-12T15:33:45.513Z,36.30
2024-03-12T15:39:52.467Z,39.30
2024-03-12T15:45:22.470Z,39.50
2024-03-12T15:50:46.031Z,40.80
2024-03-12T15:56:34.473Z,38.40
2024-03-12T16:01:57.683Z,41.50
2024-03-12T16:08:07.438Z,42.70
2024-03-12T16:14:21.798Z,41.90
2024-03-12T16:20:15.417Z,43.10
2024-03-12T16:26:35.176Z,50.70
2024-03-12T16:32:44.786Z,36.40
2024-03-12T16:38:25.771Z,47.30
2024-03-12T16:43:59.774Z,44.00
2024-03-12T16:50:07.625Z,41.40
2024-03-12T16:55:52.430Z,43.50
2024-03-12T17:01:40.038Z,42.10
2024-03-12T17:07:34.027Z,42.70
2024-03-12T17:13:32.756Z,52.30
2024-03-12T17:18:59.690Z,48.50
2024-03-12T17:24:45.071Z,45.20
2024-03-12T17:30:18.407Z,43.10
2024-03-12T17:35:54.706Z,44.50
2024-03-12T17:41:28.845Z,44.90
2024-03-12T17:47:16.389Z,44.90
2024-03-12T17:53:16.927Z,48.80
2024-03-12T17:59:02.254Z,47.90
2024-03-12T18:05:17.860Z,49.30
2024-03-12T18:11:17.181Z,88.60
2024-03-12T18:16:45.889Z,110.90
2024-03-12T18:22:24.756Z,79.20
2024-03-12T18:27:57.450Z,60.00
2024-03-12T18:34:05.606Z,54.60
2024-03-12T18:40:19.005Z,54.40
2024-03-12T18:45:54.214Z,66.90
2024-03-12T18:51:52.993Z,60.90
2024-03-12T18:57:52.390Z,55.40
2024-03-12T19:14:38.123Z,45.30
2024-03-12T19:20:44.857Z,49.40
2024-03-12T19:27:17.182Z,42.30
2024-03-12T19:32:47.628Z,48.60
2024-03-12T19:38:16.984Z,51.10
2024-03-12T19:43:51.602Z,52.50
2024-03-12T19:49:21.504Z,49.30
2024-03-12T19:54:59.163Z,47.50
2024-03-12T20:00:54.414Z,50.80
2024-03-12T20:06:06.920Z,50.30
2024-03-12T20:11:34.456Z,52.20
2024-03-12T20:17:01.837Z,53.20
2024-03-12T20:22:12.469Z,52.00
2024-03-12T20:27:22.702Z,50.00
2024-03-12T20:33:00.417Z,47.10
2024-03-12T20:38:31.114Z,47.20
2024-03-12T20:43:37.403Z,54.70
2024-03-12T20:49:04.612Z,55.90
2024-03-12T20:54:10.429Z,74.70
2024-03-12T21:00:08.595Z,67.80
2024-03-12T21:05:24.431Z,58.30
2024-03-12T21:10:45.488Z,61.50
2024-03-12T21:16:32.165Z,62.40
2024-03-12T21:21:37.104Z,59.90
2024-03-12T21:27:46.217Z,56.50
2024-03-12T21:33:48.615Z,62.00
2024-03-12T21:39:55.906Z,63.00
2024-03-12T21:45:35.551Z,51.40
2024-03-12T21:51:16.902Z,64.30
2024-03-12T21:56:42.328Z,76.10
2024-03-12T22:02:52.585Z,86.40
2024-03-12T22:09:08.357Z,81.40
2024-03-12T22:14:56.813Z,85.90
2024-03-12T22:21:05.288Z,86.40
2024-03-12T22:27:30.014Z,85.90
2024-03-12T22:32:45.522Z,79.30
2024-03-12T22:37:57.151Z,77.70
2024-03-12T22:43:04.590Z,76.50
2024-03-12T22:48:29.806Z,75.00
2024-03-12T22:53:46.790Z,76.60
2024-03-12T22:59:14.768Z,74.20
2024-03-12T23:04:55.689Z,86.40
2024-03-12T23:11:03.956Z,73.60
2024-03-12T23:17:29.485Z,72.80
2024-03-12T23:23:12.117Z,68.60
2024-03-12T23:28:45.328Z,66.80
2024-03-12T23:34:36.188Z,65.70
2024-03-12T23:40:37.756Z,64.10
2024-03-12T23:46:54.951Z,62.80
2024-03-12T23:52:22.212Z,58.00
2024-03-12T23:57:41.422Z,65.10
